Urb Rivera Donato, Puerto Rico
Current Conditions -  °F | °C
As of 9:12 PM on Wednesday 22 Oct 2014 (Local Time) from TJNR Reporting Station
Broken Clouds Broken Clouds  
Wind Chill: 82°   Ceiling: 3700
Heat Index: 87°   Visibility: 10mi
Dew Point: 73°   Wind: 5mph
Humidity: 74%   Direction: 60°ENE
Pressure: 29.98"   Gusts: NA
Location:  18.1494°N, 65.8294°W
Report Text: TJNR 230112Z AUTO 06004KT 10SM FEW023 SCT029 BKN037 28/23 A2998 RMK AO2 T02780228
Loading
Personal Weather Stations






























Interactive Weather Map
Tropical Storm Tracking
New forecast layout! Learn more

10-Day Weather Forecast

Advertisements
Track Severe Weather on mobile